createdAt,value
2023-09-08T00:00:56.475Z,20.54
2023-09-08T00:01:58.832Z,20.52
2023-09-08T00:03:02.242Z,20.49
2023-09-08T00:04:05.315Z,20.46
2023-09-08T00:05:09.080Z,20.43
2023-09-08T00:06:11.347Z,20.40
2023-09-08T00:07:14.574Z,20.38
2023-09-08T00:08:16.773Z,20.36
2023-09-08T00:09:22.312Z,20.34
2023-09-08T00:10:24.536Z,20.33
2023-09-08T00:11:27.720Z,20.31
2023-09-08T00:12:29.862Z,20.29
2023-09-08T00:13:33.077Z,20.27
2023-09-08T00:14:35.393Z,20.25
2023-09-08T00:15:39.130Z,20.23
2023-09-08T00:16:43.992Z,20.21
2023-09-08T00:17:48.388Z,20.19
2023-09-08T00:18:50.961Z,20.18
2023-09-08T00:19:53.138Z,20.16
2023-09-08T00:20:56.341Z,20.15
2023-09-08T00:21:59.615Z,20.13
2023-09-08T00:23:02.840Z,20.11
2023-09-08T00:24:05.805Z,20.10
2023-09-08T00:25:10.704Z,20.09
2023-09-08T00:26:12.920Z,20.09
2023-09-08T00:27:16.015Z,20.08
2023-09-08T00:28:18.168Z,20.08
2023-09-08T00:29:21.309Z,20.07
2023-09-08T00:30:23.585Z,20.06
2023-09-08T00:31:27.020Z,20.06
2023-09-08T00:32:29.344Z,20.04
2023-09-08T00:33:32.732Z,20.03
2023-09-08T00:34:34.995Z,20.02
2023-09-08T00:35:38.192Z,20.02
2023-09-08T00:36:40.427Z,20.01
2023-09-08T00:37:43.534Z,20.00
2023-09-08T00:38:45.799Z,19.99
2023-09-08T00:39:49.169Z,19.98
2023-09-08T00:40:52.715Z,19.97
2023-09-08T00:41:56.223Z,19.96
2023-09-08T00:42:58.710Z,19.95
2023-09-08T00:44:01.947Z,19.93
2023-09-08T00:45:04.923Z,19.92
2023-09-08T00:46:08.672Z,19.91
2023-09-08T00:47:10.990Z,19.89
2023-09-08T00:48:15.397Z,19.87
2023-09-08T00:49:17.957Z,19.86
2023-09-08T00:50:21.331Z,19.85
2023-09-08T00:51:23.568Z,19.84
2023-09-08T00:52:32.235Z,19.84
2023-09-08T00:53:34.969Z,19.84
2023-09-08T00:54:38.188Z,19.83
2023-09-08T00:55:40.823Z,19.83
2023-09-08T00:56:47.165Z,19.82
2023-09-08T00:57:49.442Z,19.81
2023-09-08T00:58:52.649Z,19.80
2023-09-08T00:59:55.206Z,19.78
2023-09-08T01:00:58.645Z,19.77
2023-09-08T01:02:01.019Z,19.75
2023-09-08T01:03:04.754Z,19.74
2023-09-08T01:04:07.189Z,19.72
2023-09-08T01:05:10.607Z,19.71
2023-09-08T01:06:13.923Z,19.70
2023-09-08T01:07:17.892Z,19.70
2023-09-08T01:08:20.608Z,19.70
2023-09-08T01:09:24.383Z,19.69
2023-09-08T01:10:26.814Z,19.68
2023-09-08T01:11:31.427Z,19.68
2023-09-08T01:12:36.037Z,19.66
2023-09-08T01:13:39.243Z,19.65
2023-09-08T01:14:41.784Z,19.64
2023-09-08T01:15:45.037Z,19.63
2023-09-08T01:16:47.604Z,19.62
2023-09-08T01:17:51.365Z,19.61
2023-09-08T01:18:54.072Z,19.60
2023-09-08T01:19:58.486Z,19.59
2023-09-08T01:21:31.291Z,19.58
2023-09-08T01:23:07.912Z,19.57
2023-09-08T01:24:35.833Z,19.55
2023-09-08T01:25:43.142Z,19.53
2023-09-08T01:26:45.375Z,19.52
2023-09-08T01:27:51.035Z,19.52
2023-09-08T01:28:54.073Z,19.51
2023-09-08T01:29:58.184Z,19.50
2023-09-08T01:31:00.463Z,19.49
2023-09-08T01:32:05.511Z,19.49
2023-09-08T01:33:08.171Z,19.47
2023-09-08T01:34:13.898Z,19.46
2023-09-08T01:35:16.830Z,19.44
2023-09-08T01:36:20.068Z,19.43
2023-09-08T01:37:23.754Z,19.42
2023-09-08T01:38:27.096Z,19.40
2023-09-08T01:39:29.464Z,19.38
2023-09-08T01:40:32.651Z,19.37
2023-09-08T01:41:36.239Z,19.35
2023-09-08T01:42:38.917Z,19.34
2023-09-08T01:43:42.099Z,19.32
2023-09-08T01:44:44.219Z,19.31
2023-09-08T01:45:47.528Z,19.31
2023-09-08T01:46:52.202Z,19.30
2023-09-08T01:47:55.399Z,19.29
2023-09-08T01:48:57.683Z,19.28
2023-09-08T01:50:00.834Z,19.27
2023-09-08T01:51:03.007Z,19.25
2023-09-08T01:52:06.924Z,19.24
2023-09-08T01:53:09.102Z,19.23
2023-09-08T01:54:11.866Z,19.23
2023-09-08T01:55:15.874Z,19.21
2023-09-08T01:56:18.093Z,19.20
2023-09-08T01:57:21.638Z,19.19
2023-09-08T01:58:24.837Z,19.18
2023-09-08T01:59:27.023Z,19.17
2023-09-08T02:00:30.298Z,19.16
2023-09-08T02:01:32.439Z,19.16
2023-09-08T02:02:35.747Z,19.15
2023-09-08T02:03:37.931Z,19.15
2023-09-08T02:04:41.100Z,19.15
2023-09-08T02:05:43.364Z,19.15
2023-09-08T02:06:46.570Z,19.15
2023-09-08T02:07:48.764Z,19.15
2023-09-08T02:08:51.942Z,19.15
2023-09-08T02:09:54.120Z,19.15
2023-09-08T02:10:57.326Z,19.15
2023-09-08T02:11:59.537Z,19.15
2023-09-08T02:13:04.219Z,19.15
2023-09-08T02:14:06.391Z,19.14
2023-09-08T02:15:12.322Z,19.13
2023-09-08T02:16:14.861Z,19.11
2023-09-08T02:17:18.415Z,19.10
2023-09-08T02:18:20.670Z,19.09
2023-09-08T02:19:23.937Z,19.08
2023-09-08T02:20:26.068Z,19.07
2023-09-08T02:21:29.330Z,19.06
2023-09-08T02:22:31.530Z,19.06
2023-09-08T02:23:34.674Z,19.05
2023-09-08T02:24:36.857Z,19.05
2023-09-08T02:25:40.033Z,19.05
2023-09-08T02:26:42.953Z,19.04
2023-09-08T02:27:46.202Z,19.03
2023-09-08T02:28:49.808Z,19.03
2023-09-08T02:29:53.167Z,19.02
2023-09-08T02:30:55.484Z,19.02
2023-09-08T02:31:58.615Z,19.01
2023-09-08T02:33:00.922Z,19.00
2023-09-08T02:34:04.299Z,19.00
2023-09-08T02:35:08.124Z,19.00
2023-09-08T02:36:10.397Z,19.00
2023-09-08T02:37:13.655Z,19.00
2023-09-08T02:38:15.744Z,19.00
2023-09-08T02:39:18.936Z,19.00
2023-09-08T02:40:21.801Z,18.99
2023-09-08T02:41:25.592Z,18.99
2023-09-08T02:42:27.783Z,18.99
2023-09-08T02:43:30.981Z,18.98
2023-09-08T02:44:34.532Z,18.97
2023-09-08T02:45:37.689Z,18.96
2023-09-08T02:46:39.886Z,18.96
2023-09-08T02:47:43.157Z,18.95
2023-09-08T02:48:45.437Z,18.95
2023-09-08T02:49:48.640Z,18.94
2023-09-08T02:50:50.880Z,18.93
2023-09-08T02:51:54.148Z,18.92
2023-09-08T02:52:56.307Z,18.90
2023-09-08T02:53:59.409Z,18.89
2023-09-08T02:55:01.564Z,18.86
2023-09-08T02:56:06.685Z,18.85
2023-09-08T02:57:08.852Z,18.84
2023-09-08T02:58:12.021Z,18.83
2023-09-08T02:59:14.256Z,18.82
2023-09-08T03:00:19.869Z,18.81
2023-09-08T03:01:22.276Z,18.81
2023-09-08T03:02:27.053Z,18.81
2023-09-08T03:03:29.376Z,18.81
2023-09-08T03:04:32.672Z,18.82
2023-09-08T03:05:34.949Z,18.82
2023-09-08T03:06:38.057Z,18.82
2023-09-08T03:07:40.412Z,18.81
2023-09-08T03:08:43.655Z,18.80
2023-09-08T03:09:45.811Z,18.79
2023-09-08T03:10:49.466Z,18.80
2023-09-08T03:11:51.771Z,18.81
2023-09-08T03:12:54.968Z,18.80
2023-09-08T03:13:57.181Z,18.80
2023-09-08T03:15:00.326Z,18.81
2023-09-08T03:16:08.257Z,18.81
2023-09-08T03:17:11.458Z,18.81
2023-09-08T03:18:15.230Z,18.80
2023-09-08T03:19:20.132Z,18.79
2023-09-08T03:20:22.753Z,18.78
2023-09-08T03:21:26.024Z,18.77
2023-09-08T03:22:28.209Z,18.75
2023-09-08T03:23:31.371Z,18.73
2023-09-08T03:24:33.616Z,18.72
2023-09-08T03:25:36.806Z,18.70
2023-09-08T03:26:40.907Z,18.68
2023-09-08T03:27:44.079Z,18.68
2023-09-08T03:28:46.392Z,18.68
2023-09-08T03:29:49.529Z,18.68
2023-09-08T03:30:51.714Z,18.68
2023-09-08T03:31:55.354Z,18.68
2023-09-08T03:32:58.742Z,18.68
2023-09-08T03:34:01.122Z,18.67
2023-09-08T03:35:07.273Z,18.67
2023-09-08T03:36:09.701Z,18.67
2023-09-08T03:37:12.869Z,18.66
2023-09-08T03:38:15.045Z,18.66
2023-09-08T03:39:20.712Z,18.66
2023-09-08T03:40:22.931Z,18.66
2023-09-08T03:41:26.084Z,18.66
2023-09-08T03:42:28.258Z,18.66
2023-09-08T03:43:31.713Z,18.66
2023-09-08T03:44:33.905Z,18.67
2023-09-08T03:45:37.067Z,18.68
2023-09-08T03:46:39.397Z,18.69
2023-09-08T03:47:44.108Z,18.71
2023-09-08T03:48:46.403Z,18.71
2023-09-08T03:49:49.561Z,18.72
2023-09-08T03:50:51.926Z,18.72
2023-09-08T03:51:55.128Z,18.72
2023-09-08T03:52:57.331Z,18.73
2023-09-08T03:54:00.530Z,18.73
2023-09-08T03:55:02.827Z,18.73
2023-09-08T03:56:06.102Z,18.73
2023-09-08T03:57:08.324Z,18.73
2023-09-08T03:58:11.514Z,18.74
2023-09-08T03:59:13.761Z,18.75
2023-09-08T04:00:22.580Z,18.77
2023-09-08T04:01:24.982Z,18.81
2023-09-08T04:02:28.385Z,18.82
2023-09-08T04:03:31.980Z,18.84
2023-09-08T04:04:35.837Z,18.84
2023-09-08T04:05:38.070Z,18.84
2023-09-08T04:06:41.253Z,18.83
2023-09-08T04:07:43.542Z,18.81
2023-09-08T04:08:46.754Z,18.80
2023-09-08T04:09:49.112Z,18.79
2023-09-08T04:10:52.298Z,18.78
2023-09-08T04:11:55.453Z,18.76
2023-09-08T04:12:58.583Z,18.76
2023-09-08T04:14:00.724Z,18.75
2023-09-08T04:15:03.904Z,18.74
2023-09-08T04:16:06.338Z,18.73
2023-09-08T04:17:09.552Z,18.72
2023-09-08T04:18:11.861Z,18.72
2023-09-08T04:19:16.369Z,18.72
2023-09-08T04:20:19.102Z,18.72
2023-09-08T04:21:22.292Z,18.74
2023-09-08T04:22:24.513Z,18.74
2023-09-08T04:23:27.686Z,18.74
2023-09-08T04:24:29.878Z,18.73
2023-09-08T04:25:32.135Z,18.74
2023-09-08T04:26:35.381Z,18.75
2023-09-08T04:27:38.024Z,18.75
2023-09-08T04:28:41.224Z,18.78
2023-09-08T04:29:43.530Z,18.79
2023-09-08T04:30:46.757Z,18.79
2023-09-08T04:31:48.977Z,18.80
2023-09-08T04:32:52.257Z,18.80
2023-09-08T04:33:55.276Z,18.79
2023-09-08T04:34:59.819Z,18.79
2023-09-08T04:36:02.013Z,18.78
2023-09-08T04:37:05.605Z,18.78
2023-09-08T04:38:08.044Z,18.79
2023-09-08T04:39:12.695Z,18.80
2023-09-08T04:40:15.634Z,18.81
2023-09-08T04:41:18.784Z,18.81
2023-09-08T04:42:20.989Z,18.82
2023-09-08T04:43:24.193Z,18.83
2023-09-08T04:44:26.616Z,18.83
2023-09-08T04:45:29.810Z,18.84
2023-09-08T04:46:32.065Z,18.85
2023-09-08T04:47:35.309Z,18.86
2023-09-08T04:48:40.177Z,18.87
2023-09-08T04:49:44.316Z,18.88
2023-09-08T04:50:47.967Z,18.89
2023-09-08T04:51:51.104Z,18.90
2023-09-08T04:52:53.429Z,18.91
2023-09-08T04:53:56.527Z,18.92
2023-09-08T04:54:58.707Z,18.93
2023-09-08T04:56:01.865Z,18.93
2023-09-08T04:57:20.349Z,18.94
2023-09-08T04:58:25.661Z,18.95
2023-09-08T04:59:27.838Z,18.96
2023-09-08T05:00:31.105Z,18.96
2023-09-08T05:01:33.866Z,18.97
2023-09-08T05:02:37.191Z,18.99
2023-09-08T05:03:39.590Z,19.00
2023-09-08T05:04:42.017Z,19.02
2023-09-08T05:05:45.181Z,19.03
2023-09-08T05:06:48.884Z,19.05
2023-09-08T05:07:53.000Z,19.07
2023-09-08T05:08:55.238Z,19.08
2023-09-08T05:09:58.408Z,19.09
2023-09-08T05:11:00.601Z,19.10
2023-09-08T05:12:03.789Z,19.12
2023-09-08T05:13:11.351Z,19.15
2023-09-08T05:14:20.598Z,19.18
2023-09-08T05:15:23.124Z,19.20
2023-09-08T05:16:38.079Z,19.22
2023-09-08T05:17:40.329Z,19.23
2023-09-08T05:18:43.982Z,19.25
2023-09-08T05:19:46.217Z,19.27
2023-09-08T05:20:50.033Z,19.30
2023-09-08T05:21:55.352Z,19.32
2023-09-08T05:22:58.488Z,19.35
2023-09-08T05:24:00.618Z,19.38
2023-09-08T05:25:03.854Z,19.40
2023-09-08T05:26:06.149Z,19.43
2023-09-08T05:27:09.872Z,19.47
2023-09-08T05:28:12.124Z,19.50
2023-09-08T05:29:15.438Z,19.52
2023-09-08T05:30:17.814Z,19.56
2023-09-08T05:31:20.984Z,19.58
2023-09-08T05:32:23.437Z,19.61
2023-09-08T05:33:26.690Z,19.64
2023-09-08T05:34:29.037Z,19.68
2023-09-08T05:35:32.232Z,19.71
2023-09-08T05:36:37.090Z,19.73
2023-09-08T05:37:40.712Z,19.75
2023-09-08T05:38:43.963Z,19.77
2023-09-08T05:39:46.333Z,19.80
2023-09-08T05:40:49.457Z,19.84
2023-09-08T05:41:51.663Z,19.88
2023-09-08T05:42:54.886Z,19.90
2023-09-08T05:43:57.083Z,19.92
2023-09-08T05:45:00.372Z,19.95
2023-09-08T05:46:02.762Z,19.98
2023-09-08T05:47:06.281Z,20.01
2023-09-08T05:48:08.976Z,20.05
2023-09-08T05:49:12.410Z,20.09
2023-09-08T05:50:15.011Z,20.14
2023-09-08T05:51:18.288Z,20.18
2023-09-08T05:52:20.610Z,20.21
2023-09-08T05:53:25.256Z,20.24
2023-09-08T05:54:27.547Z,20.28
2023-09-08T05:55:31.195Z,20.32
2023-09-08T05:56:34.649Z,20.36
2023-09-08T05:57:38.084Z,20.39
2023-09-08T05:58:40.333Z,20.41
2023-09-08T05:59:43.518Z,20.45
2023-09-08T06:00:53.230Z,20.49
2023-09-08T06:01:59.762Z,20.53
2023-09-08T06:03:02.103Z,20.56
2023-09-08T06:04:05.040Z,20.59
2023-09-08T06:05:08.971Z,20.63
2023-09-08T06:06:11.276Z,20.67
2023-09-08T06:07:14.524Z,20.70
2023-09-08T06:08:16.697Z,20.72
2023-09-08T06:09:21.267Z,20.76
2023-09-08T06:10:23.460Z,20.79
2023-09-08T06:11:26.659Z,20.83
2023-09-08T06:12:28.914Z,20.85
2023-09-08T06:13:32.183Z,20.87
2023-09-08T06:14:34.405Z,20.89
2023-09-08T06:15:37.940Z,20.92
2023-09-08T06:16:41.144Z,20.94
2023-09-08T06:17:44.437Z,20.97
2023-09-08T06:18:47.061Z,21.00
2023-09-08T06:19:50.799Z,21.03
2023-09-08T06:20:53.751Z,21.05
2023-09-08T06:21:57.026Z,21.08
2023-09-08T06:22:59.262Z,21.11
2023-09-08T06:24:02.460Z,21.13
2023-09-08T06:25:07.003Z,21.14
2023-09-08T06:26:10.254Z,21.15
2023-09-08T06:27:14.212Z,21.17
2023-09-08T06:28:17.462Z,21.20
2023-09-08T06:29:19.677Z,21.23
2023-09-08T06:30:23.116Z,21.25
2023-09-08T06:31:25.363Z,21.27
2023-09-08T06:32:28.604Z,21.30
2023-09-08T06:33:31.039Z,21.33
2023-09-08T06:34:36.629Z,21.36
2023-09-08T06:35:38.952Z,21.39
2023-09-08T06:36:42.112Z,21.41
2023-09-08T06:37:44.401Z,21.44
2023-09-08T06:38:47.545Z,21.48
2023-09-08T06:39:49.760Z,21.50
2023-09-08T06:40:55.125Z,21.53
2023-09-08T06:41:57.320Z,21.58
2023-09-08T06:43:01.468Z,21.63
2023-09-08T06:44:07.079Z,21.66
2023-09-08T06:45:11.322Z,21.70
2023-09-08T06:46:13.604Z,21.75
2023-09-08T06:47:17.000Z,21.78
2023-09-08T06:48:19.233Z,21.84
2023-09-08T06:49:22.507Z,21.89
2023-09-08T06:50:25.457Z,21.92
2023-09-08T06:51:28.737Z,21.96
2023-09-08T06:52:30.933Z,21.98
2023-09-08T06:53:34.640Z,22.01
2023-09-08T06:54:36.953Z,22.05
2023-09-08T06:55:42.795Z,22.08
2023-09-08T06:56:48.536Z,22.14
2023-09-08T06:57:51.904Z,22.17
2023-09-08T06:58:54.171Z,22.21
2023-09-08T06:59:57.361Z,22.24
2023-09-08T07:00:59.735Z,22.27
2023-09-08T07:02:09.350Z,22.30
2023-09-08T07:03:12.087Z,22.34
2023-09-08T07:04:15.435Z,22.36
2023-09-08T07:05:18.357Z,22.40
2023-09-08T07:06:23.309Z,22.43
2023-09-08T07:07:26.315Z,22.46
2023-09-08T07:08:29.643Z,22.49
2023-09-08T07:09:33.267Z,22.51
2023-09-08T07:10:36.644Z,22.55
2023-09-08T07:11:39.094Z,22.60
2023-09-08T07:12:44.162Z,22.64
2023-09-08T07:13:46.480Z,22.67
2023-09-08T07:14:49.675Z,22.69
2023-09-08T07:15:52.175Z,22.72
2023-09-08T07:16:55.558Z,22.76
2023-09-08T07:17:57.878Z,22.80
2023-09-08T07:19:02.085Z,22.83
2023-09-08T07:20:06.166Z,22.88
2023-09-08T07:21:10.089Z,22.91
2023-09-08T07:22:12.334Z,22.95
2023-09-08T07:23:15.880Z,22.97
2023-09-08T07:24:20.062Z,23.00
2023-09-08T07:25:23.534Z,23.03
2023-09-08T07:26:25.784Z,23.06
2023-09-08T07:27:29.003Z,23.08
2023-09-08T07:28:32.834Z,23.10
2023-09-08T07:29:36.275Z,23.12
2023-09-08T07:30:38.544Z,23.15
2023-09-08T07:31:42.065Z,23.17
2023-09-08T07:32:45.315Z,23.18
2023-09-08T07:33:48.615Z,23.20
2023-09-08T07:34:56.147Z,23.22
2023-09-08T07:35:59.945Z,23.24
2023-09-08T07:37:09.972Z,23.27
2023-09-08T07:38:13.452Z,23.29
2023-09-08T07:39:15.839Z,23.30
2023-09-08T07:40:19.229Z,23.32
2023-09-08T07:41:21.514Z,23.34
2023-09-08T07:42:28.441Z,23.36
2023-09-08T07:43:32.666Z,23.38
2023-09-08T07:44:35.957Z,23.40
2023-09-08T07:45:38.539Z,23.41
2023-09-08T07:46:42.006Z,23.44
2023-09-08T07:47:45.195Z,23.47
2023-09-08T07:48:48.571Z,23.50
2023-09-08T07:49:50.947Z,23.52
2023-09-08T07:50:54.780Z,23.54
2023-09-08T07:51:58.780Z,23.57
2023-09-08T07:53:05.567Z,23.59
2023-09-08T07:54:08.059Z,23.63
2023-09-08T07:55:10.391Z,23.65
2023-09-08T07:56:13.645Z,23.68
2023-09-08T07:57:16.006Z,23.71
2023-09-08T07:58:19.194Z,23.74
2023-09-08T07:59:22.818Z,23.76
2023-09-08T08:00:25.168Z,23.78
2023-09-08T08:01:28.466Z,23.80
2023-09-08T08:02:31.891Z,23.82
2023-09-08T08:03:36.069Z,23.84
2023-09-08T08:04:38.485Z,23.86
2023-09-08T08:05:41.897Z,23.89
2023-09-08T08:06:44.470Z,23.91
2023-09-08T08:07:48.131Z,23.94
2023-09-08T08:09:11.463Z,23.98
2023-09-08T08:10:34.795Z,24.02
2023-09-08T08:11:57.021Z,24.06
2023-09-08T08:13:00.411Z,24.11
2023-09-08T08:14:02.680Z,24.14
2023-09-08T08:15:07.820Z,24.16
2023-09-08T08:16:11.709Z,24.18
2023-09-08T08:17:34.020Z,24.20
2023-09-08T08:18:37.537Z,24.22
2023-09-08T08:19:40.148Z,24.23
2023-09-08T08:20:43.614Z,24.25
2023-09-08T08:21:45.971Z,24.28
2023-09-08T08:22:49.229Z,24.30
2023-09-08T08:23:51.784Z,24.33
2023-09-08T08:24:58.102Z,24.35
2023-09-08T08:26:00.460Z,24.36
2023-09-08T08:27:04.149Z,24.37
2023-09-08T08:28:07.006Z,24.38
2023-09-08T08:29:10.607Z,24.38
2023-09-08T08:30:15.146Z,24.39
2023-09-08T08:31:18.929Z,24.42
2023-09-08T08:32:22.109Z,24.43
2023-09-08T08:33:27.411Z,24.44
2023-09-08T08:34:30.159Z,24.46
2023-09-08T08:35:34.250Z,24.49
2023-09-08T08:36:37.106Z,24.51
2023-09-08T08:37:43.967Z,24.53
2023-09-08T08:38:47.605Z,24.54
2023-09-08T08:39:51.485Z,24.56
2023-09-08T08:40:55.090Z,24.56
2023-09-08T08:41:59.551Z,24.56
2023-09-08T08:43:03.015Z,24.57
2023-09-08T08:44:09.377Z,24.58
2023-09-08T08:45:13.399Z,24.59
2023-09-08T08:46:19.650Z,24.61
2023-09-08T08:47:22.068Z,24.63
2023-09-08T08:48:26.275Z,24.66
2023-09-08T08:49:29.066Z,24.67
2023-09-08T08:50:34.271Z,24.67
2023-09-08T08:51:40.235Z,24.69
2023-09-08T08:52:43.844Z,24.73
2023-09-08T08:53:46.343Z,24.76
2023-09-08T08:54:52.610Z,24.80
2023-09-08T08:56:00.287Z,24.84
2023-09-08T08:57:03.962Z,24.87
2023-09-08T08:58:10.232Z,24.89
2023-09-08T08:59:13.916Z,24.93
2023-09-08T09:00:19.750Z,24.96
2023-09-08T09:01:26.206Z,25.00
2023-09-08T09:02:31.329Z,25.03
2023-09-08T09:03:38.344Z,25.06
2023-09-08T09:04:41.086Z,25.09
2023-09-08T09:05:48.665Z,25.12
2023-09-08T09:06:52.217Z,25.13
2023-09-08T09:07:56.453Z,25.15
2023-09-08T09:08:59.629Z,25.17
2023-09-08T09:10:03.593Z,25.20
2023-09-08T09:11:05.853Z,25.21
2023-09-08T09:12:13.839Z,25.23
2023-09-08T09:13:16.245Z,25.24
2023-09-08T09:14:20.262Z,25.25
2023-09-08T09:15:33.857Z,25.28
2023-09-08T09:17:15.873Z,25.32
2023-09-08T09:18:21.391Z,25.38
2023-09-08T09:19:28.603Z,25.39
2023-09-08T09:20:31.278Z,25.42
2023-09-08T09:21:44.490Z,25.46
2023-09-08T09:22:49.128Z,25.50
2023-09-08T09:23:53.237Z,25.53
2023-09-08T09:24:58.798Z,25.55
2023-09-08T09:26:07.121Z,25.57
2023-09-08T09:27:10.440Z,25.60
2023-09-08T09:28:18.651Z,25.61
2023-09-08T09:29:23.120Z,25.63
2023-09-08T09:30:32.392Z,25.66
2023-09-08T09:31:35.157Z,25.71
2023-09-08T09:32:40.322Z,25.74
2023-09-08T09:33:44.007Z,25.76
2023-09-08T09:34:54.586Z,25.79
2023-09-08T09:36:00.950Z,25.81
2023-09-08T09:37:07.630Z,25.82
2023-09-08T09:38:10.956Z,25.83
2023-09-08T09:39:13.789Z,25.87
2023-09-08T09:40:17.108Z,25.90
2023-09-08T09:41:20.225Z,25.92
2023-09-08T09:42:24.759Z,25.96
2023-09-08T09:43:29.476Z,26.00
2023-09-08T09:44:32.753Z,26.04
2023-09-08T09:45:35.936Z,26.07
2023-09-08T09:46:39.364Z,26.11
2023-09-08T09:47:43.052Z,26.13
2023-09-08T09:48:46.354Z,26.16
2023-09-08T09:49:49.738Z,26.17
2023-09-08T09:50:53.098Z,26.19
2023-09-08T09:51:55.449Z,26.23
2023-09-08T09:53:00.388Z,26.27
2023-09-08T09:54:05.330Z,26.30
2023-09-08T09:55:10.109Z,26.34
2023-09-08T09:56:13.065Z,26.37
2023-09-08T09:57:17.091Z,26.40
2023-09-08T09:58:20.334Z,26.44
2023-09-08T09:59:23.859Z,26.46
2023-09-08T10:00:27.308Z,26.46
2023-09-08T10:01:30.826Z,26.47
2023-09-08T10:02:33.454Z,26.49
2023-09-08T10:03:38.720Z,26.52
2023-09-08T10:04:42.080Z,26.55
2023-09-08T10:05:48.105Z,26.57
2023-09-08T10:06:50.904Z,26.60
2023-09-08T10:07:54.814Z,26.63
2023-09-08T10:08:57.348Z,26.65
2023-09-08T10:10:00.557Z,26.65
2023-09-08T10:11:06.861Z,26.66
2023-09-08T10:12:11.569Z,26.68
2023-09-08T10:13:15.250Z,26.70
2023-09-08T10:14:20.774Z,26.74
2023-09-08T10:15:26.005Z,26.78
2023-09-08T10:16:30.581Z,26.80
2023-09-08T10:17:35.253Z,26.82
2023-09-08T10:18:41.868Z,26.81
2023-09-08T10:19:48.024Z,26.80
2023-09-08T10:21:06.472Z,26.81
2023-09-08T10:22:13.391Z,26.82
2023-09-08T10:23:26.477Z,26.82
2023-09-08T10:24:34.399Z,26.83
2023-09-08T10:25:41.581Z,26.83
2023-09-08T10:26:46.152Z,26.88
2023-09-08T10:27:50.307Z,26.91
2023-09-08T10:28:57.107Z,26.96
2023-09-08T10:30:07.796Z,26.99
2023-09-08T10:31:12.784Z,26.99
2023-09-08T10:32:19.272Z,26.99
2023-09-08T10:33:22.133Z,27.00
2023-09-08T10:34:27.905Z,27.02
2023-09-08T10:35:31.097Z,27.05
2023-09-08T10:36:36.668Z,27.07
2023-09-08T10:37:41.616Z,27.06
2023-09-08T10:38:48.479Z,27.05
2023-09-08T10:39:50.829Z,27.06
2023-09-08T10:40:56.578Z,27.06
2023-09-08T10:42:22.884Z,27.08
2023-09-08T10:43:26.621Z,27.13
2023-09-08T10:44:33.377Z,27.14
2023-09-08T10:45:35.887Z,27.17
2023-09-08T10:46:39.541Z,27.20
2023-09-08T10:47:57.386Z,27.22
2023-09-08T10:49:05.504Z,27.28
2023-09-08T10:50:17.656Z,27.33
2023-09-08T10:51:22.448Z,27.34
2023-09-08T10:52:25.958Z,27.34
2023-09-08T10:53:35.558Z,27.34
2023-09-08T10:54:44.442Z,27.35
2023-09-08T10:56:10.858Z,27.38
2023-09-08T10:57:16.373Z,27.43
2023-09-08T10:58:21.705Z,27.47
2023-09-08T10:59:27.443Z,27.51
2023-09-08T11:00:45.698Z,27.52
2023-09-08T11:01:49.194Z,27.53
2023-09-08T11:02:54.432Z,27.53
2023-09-08T11:03:59.440Z,27.56
2023-09-08T11:05:03.419Z,27.60
2023-09-08T11:06:07.713Z,27.62
2023-09-08T11:07:11.117Z,27.65
2023-09-08T11:08:15.317Z,27.66
2023-09-08T11:09:18.589Z,27.68
2023-09-08T11:10:20.853Z,27.70
2023-09-08T11:11:24.449Z,27.72
2023-09-08T11:12:28.431Z,27.71
2023-09-08T11:13:31.731Z,27.71
2023-09-08T11:14:36.785Z,27.71
2023-09-08T11:15:40.411Z,27.73
2023-09-08T11:16:42.652Z,27.76
2023-09-08T11:17:48.874Z,27.79
2023-09-08T11:18:52.584Z,27.81
2023-09-08T11:19:56.572Z,27.83
2023-09-08T11:21:02.916Z,27.84
2023-09-08T11:22:10.105Z,27.80
2023-09-08T11:23:12.531Z,27.71
2023-09-08T11:24:16.502Z,27.72
2023-09-08T11:25:18.836Z,27.74
2023-09-08T11:26:22.417Z,27.75
2023-09-08T11:27:24.855Z,27.77
2023-09-08T11:28:29.423Z,27.80
2023-09-08T11:29:32.529Z,27.84
2023-09-08T11:30:36.906Z,27.84
2023-09-08T11:31:39.196Z,27.86
2023-09-08T11:32:42.444Z,27.88
2023-09-08T11:33:44.669Z,27.91
2023-09-08T11:34:47.900Z,27.93
2023-09-08T11:35:50.121Z,27.94
2023-09-08T11:36:54.239Z,27.95
2023-09-08T11:38:06.011Z,27.95
2023-09-08T11:39:11.496Z,27.96
2023-09-08T11:40:14.934Z,27.98
2023-09-08T11:41:19.122Z,27.99
2023-09-08T11:42:22.463Z,27.99
2023-09-08T11:43:25.619Z,28.00
2023-09-08T11:44:28.153Z,28.01
2023-09-08T11:45:32.844Z,28.02
2023-09-08T11:46:35.165Z,28.04
2023-09-08T11:47:38.641Z,28.06
2023-09-08T11:48:41.100Z,28.09
2023-09-08T11:49:45.704Z,28.14
2023-09-08T11:50:47.936Z,28.19
2023-09-08T11:51:51.818Z,28.23
2023-09-08T11:52:55.036Z,28.25
2023-09-08T11:54:02.135Z,28.27
2023-09-08T11:55:07.575Z,28.28
2023-09-08T11:56:11.137Z,28.30
2023-09-08T11:57:15.378Z,28.32
2023-09-08T11:58:23.058Z,28.36
2023-09-08T11:59:26.500Z,28.41
2023-09-08T12:00:30.894Z,28.46
2023-09-08T12:01:33.353Z,28.50
2023-09-08T12:02:37.614Z,28.55
2023-09-08T12:03:53.165Z,28.60
2023-09-08T12:04:56.505Z,28.62
2023-09-08T12:05:59.863Z,28.62
2023-09-08T12:07:03.118Z,28.63
2023-09-08T12:08:06.321Z,28.66
2023-09-08T12:09:10.820Z,28.68
2023-09-08T12:10:14.343Z,28.70
2023-09-08T12:11:17.663Z,28.72
2023-09-08T12:12:19.873Z,28.74
2023-09-08T12:13:23.405Z,28.74
2023-09-08T12:14:27.925Z,28.75
2023-09-08T12:15:35.219Z,28.78
2023-09-08T12:16:38.088Z,28.80
2023-09-08T12:17:51.491Z,28.83
2023-09-08T12:18:53.763Z,28.83
2023-09-08T12:19:57.039Z,28.82
2023-09-08T12:21:06.006Z,28.84
2023-09-08T12:22:11.801Z,28.85
2023-09-08T12:23:18.696Z,28.86
2023-09-08T12:24:50.035Z,28.89
2023-09-08T12:25:53.636Z,28.93
2023-09-08T12:26:56.954Z,28.96
2023-09-08T12:27:59.931Z,28.99
2023-09-08T12:29:06.247Z,29.02
2023-09-08T12:30:09.709Z,29.06
2023-09-08T12:31:15.818Z,29.09
2023-09-08T12:32:18.271Z,29.14
2023-09-08T12:33:22.377Z,29.19
2023-09-08T12:34:24.837Z,29.24
2023-09-08T12:35:31.183Z,29.28
2023-09-08T12:36:37.243Z,29.32
2023-09-08T12:37:41.371Z,29.36
2023-09-08T12:38:49.162Z,29.38
2023-09-08T12:39:53.878Z,29.39
2023-09-08T12:40:56.111Z,29.39
2023-09-08T12:41:59.247Z,29.40
2023-09-08T12:43:05.849Z,29.42
2023-09-08T12:44:24.676Z,29.45
2023-09-08T12:45:28.298Z,29.47
2023-09-08T12:46:33.246Z,29.49
2023-09-08T12:47:36.616Z,29.51
2023-09-08T12:48:40.212Z,29.55
2023-09-08T12:49:42.442Z,29.60
2023-09-08T12:50:45.683Z,29.62
2023-09-08T12:51:47.909Z,29.64
2023-09-08T12:52:51.076Z,29.68
2023-09-08T12:53:53.376Z,29.73
2023-09-08T12:55:00.643Z,29.75
2023-09-08T12:56:02.828Z,29.78
2023-09-08T12:57:07.115Z,29.77
2023-09-08T12:58:09.463Z,29.79
2023-09-08T12:59:12.777Z,29.83
2023-09-08T13:00:15.577Z,29.87
2023-09-08T13:01:18.968Z,29.89
2023-09-08T13:02:21.585Z,29.92
2023-09-08T13:03:24.851Z,29.93
2023-09-08T13:04:27.082Z,29.91
2023-09-08T13:05:30.404Z,29.90
2023-09-08T13:06:33.942Z,29.91
2023-09-08T13:07:37.232Z,29.91
2023-09-08T13:08:39.429Z,29.90
2023-09-08T13:09:42.763Z,29.89
2023-09-08T13:10:46.353Z,29.90
2023-09-08T13:11:49.568Z,29.93
2023-09-08T13:12:51.819Z,29.95
2023-09-08T13:13:54.995Z,29.95
2023-09-08T13:14:57.226Z,29.95
2023-09-08T13:16:00.580Z,29.94
2023-09-08T13:17:02.912Z,29.92
2023-09-08T13:18:06.465Z,29.91
2023-09-08T13:19:08.695Z,29.91
2023-09-08T13:20:13.604Z,29.91
2023-09-08T13:21:16.100Z,29.90
2023-09-08T13:22:19.281Z,29.94
2023-09-08T13:23:23.068Z,29.96
2023-09-08T13:24:26.244Z,29.98
2023-09-08T13:25:28.653Z,30.00
2023-09-08T13:26:33.013Z,30.05
2023-09-08T13:27:36.222Z,30.11
2023-09-08T13:28:38.705Z,30.16
2023-09-08T13:29:42.150Z,30.19
2023-09-08T13:30:44.328Z,30.20
2023-09-08T13:31:47.605Z,30.20
2023-09-08T13:32:49.918Z,30.21
2023-09-08T13:33:53.669Z,30.25
2023-09-08T13:34:55.941Z,30.30
2023-09-08T13:35:59.145Z,30.33
2023-09-08T13:37:03.344Z,30.34
2023-09-08T13:38:07.021Z,30.39
2023-09-08T13:39:09.402Z,30.44
2023-09-08T13:40:14.357Z,30.48
2023-09-08T13:41:16.745Z,30.50
2023-09-08T13:42:21.357Z,30.55
2023-09-08T13:43:24.385Z,30.59
2023-09-08T13:44:28.094Z,30.61
2023-09-08T13:45:30.346Z,30.65
2023-09-08T13:46:33.770Z,30.67